sensor_id;sensor_type;location;lat;lon;timestamp;temperature;humidity
70851;DHT22;58475;49.662;9.636;2022-08-21T00:01:38;15.26;87.94
70851;DHT22;58475;49.662;9.636;2022-08-21T00:04:06;15.39;87.62
70851;DHT22;58475;49.662;9.636;2022-08-21T00:06:32;15.36;87.82
70851;DHT22;58475;49.662;9.636;2022-08-21T00:08:59;15.37;87.69
70851;DHT22;58475;49.662;9.636;2022-08-21T00:11:24;15.28;88.06
70851;DHT22;58475;49.662;9.636;2022-08-21T00:13:52;15.19;87.93
70851;DHT22;58475;49.662;9.636;2022-08-21T00:16:17;15.25;87.89
70851;DHT22;58475;49.662;9.636;2022-08-21T00:18:43;15.26;87.83
70851;DHT22;58475;49.662;9.636;2022-08-21T00:21:08;15.29;87.67
70851;DHT22;58475;49.662;9.636;2022-08-21T00:23:34;15.33;87.63
70851;DHT22;58475;49.662;9.636;2022-08-21T00:26:00;15.19;88.36
70851;DHT22;58475;49.662;9.636;2022-08-21T00:28:26;15.29;88.35
70851;DHT22;58475;49.662;9.636;2022-08-21T00:30:51;15.05;88.18
70851;DHT22;58475;49.662;9.636;2022-08-21T00:33:16;14.95;87.89
70851;DHT22;58475;49.662;9.636;2022-08-21T00:35:42;14.81;87.59
70851;DHT22;58475;49.662;9.636;2022-08-21T00:38:09;14.79;88.14
70851;DHT22;58475;49.662;9.636;2022-08-21T00:40:42;14.74;88.54
70851;DHT22;58475;49.662;9.636;2022-08-21T00:43:10;14.72;88.58
70851;DHT22;58475;49.662;9.636;2022-08-21T00:45:35;14.65;88.07
70851;DHT22;58475;49.662;9.636;2022-08-21T00:48:01;14.58;87.60
70851;DHT22;58475;49.662;9.636;2022-08-21T00:50:32;14.40;88.20
70851;DHT22;58475;49.662;9.636;2022-08-21T00:52:59;14.54;88.06
70851;DHT22;58475;49.662;9.636;2022-08-21T00:55:27;14.64;87.34
70851;DHT22;58475;49.662;9.636;2022-08-21T00:57:55;14.51;87.53
70851;DHT22;58475;49.662;9.636;2022-08-21T01:00:32;14.51;87.95
70851;DHT22;58475;49.662;9.636;2022-08-21T01:03:00;14.47;87.95
70851;DHT22;58475;49.662;9.636;2022-08-21T01:05:26;14.31;88.00
70851;DHT22;58475;49.662;9.636;2022-08-21T01:07:53;14.42;88.21
70851;DHT22;58475;49.662;9.636;2022-08-21T01:10:19;14.41;88.20
70851;DHT22;58475;49.662;9.636;2022-08-21T01:12:44;14.47;87.79
70851;DHT22;58475;49.662;9.636;2022-08-21T01:15:10;14.38;88.44
70851;DHT22;58475;49.662;9.636;2022-08-21T01:17:40;14.56;88.22
70851;DHT22;58475;49.662;9.636;2022-08-21T01:20:08;14.61;88.47
70851;DHT22;58475;49.662;9.636;2022-08-21T01:22:35;14.61;88.52
70851;DHT22;58475;49.662;9.636;2022-08-21T01:25:02;14.60;88.09
70851;DHT22;58475;49.662;9.636;2022-08-21T01:27:28;14.30;87.87
70851;DHT22;58475;49.662;9.636;2022-08-21T01:30:02;14.19;88.44
70851;DHT22;58475;49.662;9.636;2022-08-21T01:32:33;14.03;88.49
70851;DHT22;58475;49.662;9.636;2022-08-21T01:34:59;13.92;89.04
70851;DHT22;58475;49.662;9.636;2022-08-21T01:37:24;13.96;88.68
70851;DHT22;58475;49.662;9.636;2022-08-21T01:39:49;14.02;88.76
70851;DHT22;58475;49.662;9.636;2022-08-21T01:42:15;13.87;89.08
70851;DHT22;58475;49.662;9.636;2022-08-21T01:44:41;13.90;88.84
70851;DHT22;58475;49.662;9.636;2022-08-21T01:47:09;13.79;88.85
70851;DHT22;58475;49.662;9.636;2022-08-21T01:49:36;13.85;88.61
70851;DHT22;58475;49.662;9.636;2022-08-21T01:52:03;13.89;88.64
70851;DHT22;58475;49.662;9.636;2022-08-21T01:54:29;13.89;88.60
70851;DHT22;58475;49.662;9.636;2022-08-21T01:56:55;13.79;88.85
70851;DHT22;58475;49.662;9.636;2022-08-21T01:59:22;13.87;88.72
70851;DHT22;58475;49.662;9.636;2022-08-21T02:01:47;13.92;88.06
70851;DHT22;58475;49.662;9.636;2022-08-21T02:04:13;13.76;87.63
70851;DHT22;58475;49.662;9.636;2022-08-21T02:06:39;13.61;87.65
70851;DHT22;58475;49.662;9.636;2022-08-21T02:09:06;13.62;87.57
70851;DHT22;58475;49.662;9.636;2022-08-21T02:11:33;13.52;88.12
70851;DHT22;58475;49.662;9.636;2022-08-21T02:13:58;13.49;87.89
70851;DHT22;58475;49.662;9.636;2022-08-21T02:16:24;13.39;87.91
70851;DHT22;58475;49.662;9.636;2022-08-21T02:18:50;13.32;88.25
70851;DHT22;58475;49.662;9.636;2022-08-21T02:21:18;13.30;88.37
70851;DHT22;58475;49.662;9.636;2022-08-21T02:23:44;13.20;89.13
70851;DHT22;58475;49.662;9.636;2022-08-21T02:26:10;13.24;89.19
70851;DHT22;58475;49.662;9.636;2022-08-21T02:28:38;13.28;89.00
70851;DHT22;58475;49.662;9.636;2022-08-21T02:31:04;13.21;88.62
70851;DHT22;58475;49.662;9.636;2022-08-21T02:33:30;13.17;88.97
70851;DHT22;58475;49.662;9.636;2022-08-21T02:35:56;13.14;89.08
70851;DHT22;58475;49.662;9.636;2022-08-21T02:38:26;13.35;88.12
70851;DHT22;58475;49.662;9.636;2022-08-21T02:40:53;13.25;88.27
70851;DHT22;58475;49.662;9.636;2022-08-21T02:43:21;13.04;87.88
70851;DHT22;58475;49.662;9.636;2022-08-21T02:45:47;13.06;88.33
70851;DHT22;58475;49.662;9.636;2022-08-21T02:48:17;12.97;88.90
70851;DHT22;58475;49.662;9.636;2022-08-21T02:50:46;12.77;89.24
70851;DHT22;58475;49.662;9.636;2022-08-21T02:53:14;12.76;89.01
70851;DHT22;58475;49.662;9.636;2022-08-21T02:55:43;12.69;89.02
70851;DHT22;58475;49.662;9.636;2022-08-21T02:58:10;12.75;88.93
70851;DHT22;58475;49.662;9.636;2022-08-21T03:00:36;12.80;88.60
70851;DHT22;58475;49.662;9.636;2022-08-21T03:03:02;12.90;88.21
70851;DHT22;58475;49.662;9.636;2022-08-21T03:05:29;12.62;88.41
70851;DHT22;58475;49.662;9.636;2022-08-21T03:08:00;12.77;88.40
70851;DHT22;58475;49.662;9.636;2022-08-21T03:10:26;12.80;88.73
70851;DHT22;58475;49.662;9.636;2022-08-21T03:12:51;12.79;88.88
70851;DHT22;58475;49.662;9.636;2022-08-21T03:15:19;12.83;89.24
70851;DHT22;58475;49.662;9.636;2022-08-21T03:17:45;12.97;88.71
70851;DHT22;58475;49.662;9.636;2022-08-21T03:20:11;12.93;88.76
70851;DHT22;58475;49.662;9.636;2022-08-21T03:22:37;12.96;88.37
70851;DHT22;58475;49.662;9.636;2022-08-21T03:25:03;12.81;88.52
70851;DHT22;58475;49.662;9.636;2022-08-21T03:27:29;12.73;88.38
70851;DHT22;58475;49.662;9.636;2022-08-21T03:29:56;12.55;89.01
70851;DHT22;58475;49.662;9.636;2022-08-21T03:32:22;12.35;89.14
70851;DHT22;58475;49.662;9.636;2022-08-21T03:34:47;12.39;88.68
70851;DHT22;58475;49.662;9.636;2022-08-21T03:37:14;12.22;89.14
70851;DHT22;58475;49.662;9.636;2022-08-21T03:39:40;12.15;89.18
70851;DHT22;58475;49.662;9.636;2022-08-21T03:42:07;12.21;88.92
70851;DHT22;58475;49.662;9.636;2022-08-21T03:44:33;12.19;88.39
70851;DHT22;58475;49.662;9.636;2022-08-21T03:46:59;12.12;88.97
70851;DHT22;58475;49.662;9.636;2022-08-21T03:49:25;12.08;89.26
70851;DHT22;58475;49.662;9.636;2022-08-21T03:51:50;12.12;89.42
70851;DHT22;58475;49.662;9.636;2022-08-21T03:54:16;12.19;88.98
70851;DHT22;58475;49.662;9.636;2022-08-21T03:56:41;12.04;89.16
70851;DHT22;58475;49.662;9.636;2022-08-21T03:59:07;11.97;88.94
70851;DHT22;58475;49.662;9.636;2022-08-21T04:01:33;12.05;88.62
70851;DHT22;58475;49.662;9.636;2022-08-21T04:03:58;12.02;88.29
70851;DHT22;58475;49.662;9.636;2022-08-21T04:06:24;11.97;87.99
70851;DHT22;58475;49.662;9.636;2022-08-21T04:08:51;11.88;88.30
70851;DHT22;58475;49.662;9.636;2022-08-21T04:11:17;11.94;88.10
70851;DHT22;58475;49.662;9.636;2022-08-21T04:13:43;11.95;88.03
70851;DHT22;58475;49.662;9.636;2022-08-21T04:16:08;11.98;88.14
70851;DHT22;58475;49.662;9.636;2022-08-21T04:18:33;12.08;88.50
70851;DHT22;58475;49.662;9.636;2022-08-21T04:20:59;12.15;88.40
70851;DHT22;58475;49.662;9.636;2022-08-21T04:23:26;12.24;88.77
70851;DHT22;58475;49.662;9.636;2022-08-21T04:25:53;12.33;89.32
70851;DHT22;58475;49.662;9.636;2022-08-21T04:28:19;12.53;89.66
70851;DHT22;58475;49.662;9.636;2022-08-21T04:30:45;12.70;89.93
70851;DHT22;58475;49.662;9.636;2022-08-21T04:33:10;12.79;89.17
70851;DHT22;58475;49.662;9.636;2022-08-21T04:35:36;12.77;90.29
70851;DHT22;58475;49.662;9.636;2022-08-21T04:38:01;12.87;91.08
70851;DHT22;58475;49.662;9.636;2022-08-21T04:40:27;12.80;89.54
70851;DHT22;58475;49.662;9.636;2022-08-21T04:42:55;12.59;89.08
70851;DHT22;58475;49.662;9.636;2022-08-21T04:45:33;12.40;89.16
70851;DHT22;58475;49.662;9.636;2022-08-21T04:48:01;12.39;89.30
70851;DHT22;58475;49.662;9.636;2022-08-21T04:53:10;12.45;89.29
70851;DHT22;58475;49.662;9.636;2022-08-21T04:55:36;12.43;89.30
70851;DHT22;58475;49.662;9.636;2022-08-21T04:58:05;12.60;89.12
70851;DHT22;58475;49.662;9.636;2022-08-21T05:00:30;12.62;89.53
70851;DHT22;58475;49.662;9.636;2022-08-21T05:02:56;12.60;89.90
70851;DHT22;58475;49.662;9.636;2022-08-21T05:05:24;12.72;90.17
70851;DHT22;58475;49.662;9.636;2022-08-21T05:07:50;12.75;90.78
70851;DHT22;58475;49.662;9.636;2022-08-21T05:10:17;12.84;90.68
70851;DHT22;58475;49.662;9.636;2022-08-21T05:12:42;12.91;90.49
70851;DHT22;58475;49.662;9.636;2022-08-21T05:15:10;13.06;90.38
70851;DHT22;58475;49.662;9.636;2022-08-21T05:17:37;13.06;91.17
70851;DHT22;58475;49.662;9.636;2022-08-21T05:20:02;13.01;91.30
70851;DHT22;58475;49.662;9.636;2022-08-21T05:22:28;13.10;91.14
70851;DHT22;58475;49.662;9.636;2022-08-21T05:24:53;13.27;91.50
70851;DHT22;58475;49.662;9.636;2022-08-21T05:27:19;13.27;91.34
70851;DHT22;58475;49.662;9.636;2022-08-21T05:29:44;13.31;90.95
70851;DHT22;58475;49.662;9.636;2022-08-21T05:32:11;13.38;90.87
70851;DHT22;58475;49.662;9.636;2022-08-21T05:34:37;13.28;90.83
70851;DHT22;58475;49.662;9.636;2022-08-21T05:37:03;13.41;91.14
70851;DHT22;58475;49.662;9.636;2022-08-21T05:39:29;13.21;90.65
70851;DHT22;58475;49.662;9.636;2022-08-21T05:41:55;13.44;90.82
70851;DHT22;58475;49.662;9.636;2022-08-21T05:44:20;13.65;90.57
70851;DHT22;58475;49.662;9.636;2022-08-21T05:46:46;13.54;90.24
70851;DHT22;58475;49.662;9.636;2022-08-21T05:49:11;13.48;90.22
70851;DHT22;58475;49.662;9.636;2022-08-21T05:51:38;13.70;89.91
70851;DHT22;58475;49.662;9.636;2022-08-21T05:54:04;13.89;90.11
70851;DHT22;58475;49.662;9.636;2022-08-21T05:56:30;14.00;89.75
70851;DHT22;58475;49.662;9.636;2022-08-21T05:58:55;14.00;88.95
70851;DHT22;58475;49.662;9.636;2022-08-21T06:01:21;13.99;88.85
70851;DHT22;58475;49.662;9.636;2022-08-21T06:03:46;13.93;88.46
70851;DHT22;58475;49.662;9.636;2022-08-21T06:06:11;14.07;88.49
70851;DHT22;58475;49.662;9.636;2022-08-21T06:08:37;14.16;89.07
70851;DHT22;58475;49.662;9.636;2022-08-21T06:11:03;14.23;88.40
70851;DHT22;58475;49.662;9.636;2022-08-21T06:13:29;14.48;87.76
70851;DHT22;58475;49.662;9.636;2022-08-21T06:16:07;14.95;87.29
70851;DHT22;58475;49.662;9.636;2022-08-21T06:18:34;15.53;85.03
70851;DHT22;58475;49.662;9.636;2022-08-21T06:20:59;15.88;84.35
70851;DHT22;58475;49.662;9.636;2022-08-21T06:23:25;15.87;82.85
70851;DHT22;58475;49.662;9.636;2022-08-21T06:25:50;15.63;83.98
70851;DHT22;58475;49.662;9.636;2022-08-21T06:28:16;15.83;83.86
70851;DHT22;58475;49.662;9.636;2022-08-21T06:30:44;16.14;82.51
70851;DHT22;58475;49.662;9.636;2022-08-21T06:33:09;16.63;81.46
70851;DHT22;58475;49.662;9.636;2022-08-21T06:35:35;16.93;80.66
70851;DHT22;58475;49.662;9.636;2022-08-21T06:38:00;17.51;78.47
70851;DHT22;58475;49.662;9.636;2022-08-21T06:40:27;17.81;78.05
70851;DHT22;58475;49.662;9.636;2022-08-21T06:42:52;18.05;77.43
70851;DHT22;58475;49.662;9.636;2022-08-21T06:45:18;17.96;77.23
70851;DHT22;58475;49.662;9.636;2022-08-21T06:47:43;17.99;76.68
70851;DHT22;58475;49.662;9.636;2022-08-21T06:50:09;18.03;75.50
70851;DHT22;58475;49.662;9.636;2022-08-21T06:52:35;18.38;75.17
70851;DHT22;58475;49.662;9.636;2022-08-21T06:55:01;18.57;73.90
70851;DHT22;58475;49.662;9.636;2022-08-21T06:57:26;19.25;72.92
70851;DHT22;58475;49.662;9.636;2022-08-21T06:59:52;19.20;71.81
70851;DHT22;58475;49.662;9.636;2022-08-21T07:02:17;18.63;72.40
70851;DHT22;58475;49.662;9.636;2022-08-21T07:04:43;18.67;72.84
70851;DHT22;58475;49.662;9.636;2022-08-21T07:07:09;19.08;71.57
70851;DHT22;58475;49.662;9.636;2022-08-21T07:09:34;19.53;70.01
70851;DHT22;58475;49.662;9.636;2022-08-21T07:12:01;19.59;69.80
70851;DHT22;58475;49.662;9.636;2022-08-21T07:14:27;19.85;69.81
70851;DHT22;58475;49.662;9.636;2022-08-21T07:16:53;20.49;69.01
70851;DHT22;58475;49.662;9.636;2022-08-21T07:19:19;20.89;67.80
70851;DHT22;58475;49.662;9.636;2022-08-21T07:21:45;20.39;67.44
70851;DHT22;58475;49.662;9.636;2022-08-21T07:24:10;20.75;67.16
70851;DHT22;58475;49.662;9.636;2022-08-21T07:26:36;21.20;66.32
70851;DHT22;58475;49.662;9.636;2022-08-21T07:29:02;21.23;65.98
70851;DHT22;58475;49.662;9.636;2022-08-21T07:31:28;21.65;66.20
70851;DHT22;58475;49.662;9.636;2022-08-21T07:33:53;21.13;66.28
70851;DHT22;58475;49.662;9.636;2022-08-21T07:36:19;21.17;64.93
70851;DHT22;58475;49.662;9.636;2022-08-21T07:38:45;21.81;63.24
70851;DHT22;58475;49.662;9.636;2022-08-21T07:41:26;22.12;63.20
70851;DHT22;58475;49.662;9.636;2022-08-21T07:43:55;22.47;63.57
70851;DHT22;58475;49.662;9.636;2022-08-21T07:46:22;23.09;61.05
70851;DHT22;58475;49.662;9.636;2022-08-21T07:48:48;23.21;61.29
70851;DHT22;58475;49.662;9.636;2022-08-21T07:51:15;23.18;60.41
70851;DHT22;58475;49.662;9.636;2022-08-21T07:53:41;23.30;62.39
70851;DHT22;58475;49.662;9.636;2022-08-21T07:56:09;23.55;60.13
70851;DHT22;58475;49.662;9.636;2022-08-21T07:58:36;23.81;60.02
70851;DHT22;58475;49.662;9.636;2022-08-21T08:01:01;24.47;59.59
70851;DHT22;58475;49.662;9.636;2022-08-21T08:03:27;24.55;58.47
70851;DHT22;58475;49.662;9.636;2022-08-21T08:05:52;24.64;57.14
70851;DHT22;58475;49.662;9.636;2022-08-21T08:08:18;25.16;57.41
70851;DHT22;58475;49.662;9.636;2022-08-21T08:10:43;25.66;56.99
70851;DHT22;58475;49.662;9.636;2022-08-21T08:13:09;25.30;56.73
70851;DHT22;58475;49.662;9.636;2022-08-21T08:15:35;25.71;56.10
70851;DHT22;58475;49.662;9.636;2022-08-21T08:18:01;25.92;54.29
70851;DHT22;58475;49.662;9.636;2022-08-21T08:20:27;26.06;54.56
70851;DHT22;58475;49.662;9.636;2022-08-21T08:22:53;26.14;55.12
70851;DHT22;58475;49.662;9.636;2022-08-21T08:25:19;26.18;53.95
70851;DHT22;58475;49.662;9.636;2022-08-21T08:27:45;26.45;54.30
70851;DHT22;58475;49.662;9.636;2022-08-21T08:30:13;26.77;53.58
70851;DHT22;58475;49.662;9.636;2022-08-21T08:32:40;25.23;57.55
70851;DHT22;58475;49.662;9.636;2022-08-21T08:35:06;26.25;54.37
70851;DHT22;58475;49.662;9.636;2022-08-21T08:37:33;26.14;53.43
70851;DHT22;58475;49.662;9.636;2022-08-21T08:39:58;26.73;52.95
70851;DHT22;58475;49.662;9.636;2022-08-21T08:42:31;27.32;52.35
70851;DHT22;58475;49.662;9.636;2022-08-21T08:45:13;28.25;51.97
70851;DHT22;58475;49.662;9.636;2022-08-21T08:47:43;28.39;50.57
70851;DHT22;58475;49.662;9.636;2022-08-21T08:50:23;28.14;51.41
70851;DHT22;58475;49.662;9.636;2022-08-21T08:53:03;28.55;49.80
70851;DHT22;58475;49.662;9.636;2022-08-21T08:55:43;28.54;49.29
70851;DHT22;58475;49.662;9.636;2022-08-21T08:58:20;28.62;49.59
70851;DHT22;58475;49.662;9.636;2022-08-21T09:00:49;28.55;50.18
70851;DHT22;58475;49.662;9.636;2022-08-21T09:03:15;29.05;48.75
70851;DHT22;58475;49.662;9.636;2022-08-21T09:05:53;29.51;47.31
70851;DHT22;58475;49.662;9.636;2022-08-21T09:09:02;29.50;47.21
70851;DHT22;58475;49.662;9.636;2022-08-21T09:11:41;29.36;46.31
70851;DHT22;58475;49.662;9.636;2022-08-21T09:14:16;29.98;45.55
70851;DHT22;58475;49.662;9.636;2022-08-21T09:17:02;29.94;46.63
70851;DHT22;58475;49.662;9.636;2022-08-21T09:22:36;29.53;46.48
70851;DHT22;58475;49.662;9.636;2022-08-21T09:25:26;28.37;48.96
70851;DHT22;58475;49.662;9.636;2022-08-21T09:27:53;27.72;49.71
70851;DHT22;58475;49.662;9.636;2022-08-21T09:30:25;27.52;46.12
70851;DHT22;58475;49.662;9.636;2022-08-21T09:32:50;28.16;43.18
70851;DHT22;58475;49.662;9.636;2022-08-21T09:35:19;28.61;41.85
70851;DHT22;58475;49.662;9.636;2022-08-21T09:37:57;29.96;40.66
70851;DHT22;58475;49.662;9.636;2022-08-21T09:40:36;29.51;39.30
70851;DHT22;58475;49.662;9.636;2022-08-21T09:45:32;29.70;40.81
70851;DHT22;58475;49.662;9.636;2022-08-21T09:48:13;29.67;39.91
70851;DHT22;58475;49.662;9.636;2022-08-21T09:50:39;29.05;41.69
70851;DHT22;58475;49.662;9.636;2022-08-21T09:53:13;28.61;41.52
70851;DHT22;58475;49.662;9.636;2022-08-21T09:55:49;29.67;40.88
70851;DHT22;58475;49.662;9.636;2022-08-21T09:58:36;29.81;40.40
70851;DHT22;58475;49.662;9.636;2022-08-21T10:01:05;29.26;39.97
70851;DHT22;58475;49.662;9.636;2022-08-21T10:03:30;28.41;41.65
70851;DHT22;58475;49.662;9.636;2022-08-21T10:06:02;29.49;39.88
70851;DHT22;58475;49.662;9.636;2022-08-21T10:08:31;29.98;40.29
70851;DHT22;58475;49.662;9.636;2022-08-21T10:11:09;30.01;39.39
70851;DHT22;58475;49.662;9.636;2022-08-21T10:16:30;29.45;40.32
70851;DHT22;58475;49.662;9.636;2022-08-21T10:19:02;29.81;39.14
70851;DHT22;58475;49.662;9.636;2022-08-21T10:24:36;29.50;40.21
70851;DHT22;58475;49.662;9.636;2022-08-21T10:34:06;29.97;38.85
70851;DHT22;58475;49.662;9.636;2022-08-21T10:36:25;30.90;39.06
70851;DHT22;58475;49.662;9.636;2022-08-21T10:39:06;30.28;40.03
70851;DHT22;58475;49.662;9.636;2022-08-21T10:55:48;27.97;41.63
70851;DHT22;58475;49.662;9.636;2022-08-21T10:58:33;28.14;41.20
70851;DHT22;58475;49.662;9.636;2022-08-21T11:01:12;28.04;40.45
70851;DHT22;58475;49.662;9.636;2022-08-21T11:03:45;28.94;39.90
70851;DHT22;58475;49.662;9.636;2022-08-21T11:06:21;29.05;37.09
70851;DHT22;58475;49.662;9.636;2022-08-21T11:09:10;29.96;38.01
70851;DHT22;58475;49.662;9.636;2022-08-21T11:11:43;31.18;35.94
70851;DHT22;58475;49.662;9.636;2022-08-21T11:17:09;30.55;35.07
70851;DHT22;58475;49.662;9.636;2022-08-21T11:22:18;30.17;36.21
70851;DHT22;58475;49.662;9.636;2022-08-21T11:27:40;30.27;37.52
70851;DHT22;58475;49.662;9.636;2022-08-21T11:30:07;30.66;37.35
70851;DHT22;58475;49.662;9.636;2022-08-21T11:43:34;31.48;35.49
70851;DHT22;58475;49.662;9.636;2022-08-21T11:51:25;31.79;33.16
70851;DHT22;58475;49.662;9.636;2022-08-21T11:53:58;31.31;32.51
70851;DHT22;58475;49.662;9.636;2022-08-21T11:56:34;31.59;34.34
70851;DHT22;58475;49.662;9.636;2022-08-21T11:59:05;29.80;34.55
70851;DHT22;58475;49.662;9.636;2022-08-21T12:01:37;30.65;35.56
70851;DHT22;58475;49.662;9.636;2022-08-21T12:04:28;30.05;35.34
70851;DHT22;58475;49.662;9.636;2022-08-21T12:06:56;29.98;36.02
70851;DHT22;58475;49.662;9.636;2022-08-21T12:12:09;30.31;32.86
70851;DHT22;58475;49.662;9.636;2022-08-21T12:14:45;29.06;34.06
70851;DHT22;58475;49.662;9.636;2022-08-21T12:17:22;29.77;34.32
70851;DHT22;58475;49.662;9.636;2022-08-21T12:19:59;30.35;32.96
70851;DHT22;58475;49.662;9.636;2022-08-21T12:22:37;30.63;34.03
70851;DHT22;58475;49.662;9.636;2022-08-21T12:25:08;31.10;33.52
70851;DHT22;58475;49.662;9.636;2022-08-21T12:27:50;31.51;33.07
70851;DHT22;58475;49.662;9.636;2022-08-21T12:30:35;31.03;32.98
70851;DHT22;58475;49.662;9.636;2022-08-21T12:33:18;31.30;33.17
70851;DHT22;58475;49.662;9.636;2022-08-21T12:35:44;30.43;32.93
70851;DHT22;58475;49.662;9.636;2022-08-21T12:38:28;31.41;31.98
70851;DHT22;58475;49.662;9.636;2022-08-21T12:41:01;30.41;32.78
70851;DHT22;58475;49.662;9.636;2022-08-21T12:43:36;31.49;32.38
70851;DHT22;58475;49.662;9.636;2022-08-21T12:46:03;31.59;32.39
70851;DHT22;58475;49.662;9.636;2022-08-21T12:48:52;31.64;32.84
70851;DHT22;58475;49.662;9.636;2022-08-21T12:51:38;30.48;34.23
70851;DHT22;58475;49.662;9.636;2022-08-21T12:54:08;30.72;33.93
70851;DHT22;58475;49.662;9.636;2022-08-21T12:56:34;31.17;33.18
70851;DHT22;58475;49.662;9.636;2022-08-21T12:59:10;31.21;32.76
70851;DHT22;58475;49.662;9.636;2022-08-21T13:01:38;31.16;32.01
70851;DHT22;58475;49.662;9.636;2022-08-21T13:04:12;29.56;34.22
70851;DHT22;58475;49.662;9.636;2022-08-21T13:06:42;30.27;34.34
70851;DHT22;58475;49.662;9.636;2022-08-21T13:09:09;30.48;33.72
70851;DHT22;58475;49.662;9.636;2022-08-21T13:11:36;30.29;33.65
70851;DHT22;58475;49.662;9.636;2022-08-21T13:14:03;30.10;33.55
70851;DHT22;58475;49.662;9.636;2022-08-21T13:16:29;29.53;34.16
70851;DHT22;58475;49.662;9.636;2022-08-21T13:19:05;30.38;33.21
70851;DHT22;58475;49.662;9.636;2022-08-21T13:21:38;30.76;33.38
70851;DHT22;58475;49.662;9.636;2022-08-21T13:24:33;31.04;33.70
70851;DHT22;58475;49.662;9.636;2022-08-21T13:26:59;30.90;33.00
70851;DHT22;58475;49.662;9.636;2022-08-21T13:29:31;31.41;34.78
70851;DHT22;58475;49.662;9.636;2022-08-21T13:32:00;31.34;32.58
70851;DHT22;58475;49.662;9.636;2022-08-21T13:34:31;31.34;32.37
70851;DHT22;58475;49.662;9.636;2022-08-21T13:37:01;31.85;32.97
70851;DHT22;58475;49.662;9.636;2022-08-21T13:39:27;31.51;32.32
70851;DHT22;58475;49.662;9.636;2022-08-21T13:41:56;31.26;32.65
70851;DHT22;58475;49.662;9.636;2022-08-21T13:44:36;30.78;32.69
70851;DHT22;58475;49.662;9.636;2022-08-21T13:47:05;30.78;33.20
70851;DHT22;58475;49.662;9.636;2022-08-21T13:49:40;31.18;33.78
70851;DHT22;58475;49.662;9.636;2022-08-21T13:52:20;30.56;33.43
70851;DHT22;58475;49.662;9.636;2022-08-21T13:55:11;30.59;33.28
70851;DHT22;58475;49.662;9.636;2022-08-21T13:57:37;31.00;33.68
70851;DHT22;58475;49.662;9.636;2022-08-21T14:00:16;31.75;34.53
70851;DHT22;58475;49.662;9.636;2022-08-21T14:02:46;30.73;32.58
70851;DHT22;58475;49.662;9.636;2022-08-21T14:05:20;31.01;33.91
70851;DHT22;58475;49.662;9.636;2022-08-21T14:07:47;31.35;32.86
70851;DHT22;58475;49.662;9.636;2022-08-21T14:10:17;30.32;33.44
70851;DHT22;58475;49.662;9.636;2022-08-21T14:12:50;31.06;33.64
70851;DHT22;58475;49.662;9.636;2022-08-21T14:15:18;31.51;33.74
70851;DHT22;58475;49.662;9.636;2022-08-21T14:17:47;30.83;34.33
70851;DHT22;58475;49.662;9.636;2022-08-21T14:20:33;29.74;35.07
70851;DHT22;58475;49.662;9.636;2022-08-21T14:22:59;29.59;35.15
70851;DHT22;58475;49.662;9.636;2022-08-21T14:27:59;31.07;34.43
70851;DHT22;58475;49.662;9.636;2022-08-21T14:30:38;30.79;33.25
70851;DHT22;58475;49.662;9.636;2022-08-21T14:33:10;30.78;33.16
70851;DHT22;58475;49.662;9.636;2022-08-21T14:35:36;30.97;33.22
70851;DHT22;58475;49.662;9.636;2022-08-21T14:38:01;31.45;33.29
70851;DHT22;58475;49.662;9.636;2022-08-21T14:40:27;30.87;33.23
70851;DHT22;58475;49.662;9.636;2022-08-21T14:42:53;30.93;31.79
70851;DHT22;58475;49.662;9.636;2022-08-21T14:45:29;30.87;32.36
70851;DHT22;58475;49.662;9.636;2022-08-21T14:47:56;30.29;33.31
70851;DHT22;58475;49.662;9.636;2022-08-21T14:50:23;30.58;33.61
70851;DHT22;58475;49.662;9.636;2022-08-21T14:52:48;30.49;34.01
70851;DHT22;58475;49.662;9.636;2022-08-21T14:55:15;30.05;34.12
70851;DHT22;58475;49.662;9.636;2022-08-21T14:57:43;30.15;33.97
70851;DHT22;58475;49.662;9.636;2022-08-21T15:00:12;30.55;34.03
70851;DHT22;58475;49.662;9.636;2022-08-21T15:02:38;30.49;34.51
70851;DHT22;58475;49.662;9.636;2022-08-21T15:05:04;30.32;33.97
70851;DHT22;58475;49.662;9.636;2022-08-21T15:07:29;30.27;33.90
70851;DHT22;58475;49.662;9.636;2022-08-21T15:09:55;30.60;33.81
70851;DHT22;58475;49.662;9.636;2022-08-21T15:12:21;30.49;33.72
70851;DHT22;58475;49.662;9.636;2022-08-21T15:14:47;29.76;33.57
70851;DHT22;58475;49.662;9.636;2022-08-21T15:17:13;30.10;33.27
70851;DHT22;58475;49.662;9.636;2022-08-21T15:19:38;30.62;33.16
70851;DHT22;58475;49.662;9.636;2022-08-21T15:22:04;30.35;34.45
70851;DHT22;58475;49.662;9.636;2022-08-21T15:24:30;30.48;33.34
70851;DHT22;58475;49.662;9.636;2022-08-21T15:26:56;30.58;34.13
70851;DHT22;58475;49.662;9.636;2022-08-21T15:29:21;30.66;34.20
70851;DHT22;58475;49.662;9.636;2022-08-21T15:34:44;30.42;34.11
70851;DHT22;58475;49.662;9.636;2022-08-21T15:37:10;30.32;33.78
70851;DHT22;58475;49.662;9.636;2022-08-21T15:39:35;30.49;33.91
70851;DHT22;58475;49.662;9.636;2022-08-21T15:42:01;30.29;33.30
70851;DHT22;58475;49.662;9.636;2022-08-21T15:44:28;30.02;33.86
70851;DHT22;58475;49.662;9.636;2022-08-21T15:46:55;30.45;34.23
70851;DHT22;58475;49.662;9.636;2022-08-21T15:49:21;30.17;34.72
70851;DHT22;58475;49.662;9.636;2022-08-21T15:51:46;29.94;34.23
70851;DHT22;58475;49.662;9.636;2022-08-21T15:54:12;29.40;34.33
70851;DHT22;58475;49.662;9.636;2022-08-21T15:56:39;29.39;34.48
70851;DHT22;58475;49.662;9.636;2022-08-21T15:59:11;29.70;34.50
70851;DHT22;58475;49.662;9.636;2022-08-21T16:01:37;29.53;34.47
70851;DHT22;58475;49.662;9.636;2022-08-21T16:04:04;29.39;34.33
70851;DHT22;58475;49.662;9.636;2022-08-21T16:06:29;29.39;34.80
70851;DHT22;58475;49.662;9.636;2022-08-21T16:08:55;29.29;34.43
70851;DHT22;58475;49.662;9.636;2022-08-21T16:11:20;29.02;34.79
70851;DHT22;58475;49.662;9.636;2022-08-21T16:13:46;29.03;35.33
70851;DHT22;58475;49.662;9.636;2022-08-21T16:16:16;28.81;34.95
70851;DHT22;58475;49.662;9.636;2022-08-21T16:18:43;28.48;35.35
70851;DHT22;58475;49.662;9.636;2022-08-21T16:21:08;28.64;35.88
70851;DHT22;58475;49.662;9.636;2022-08-21T16:23:34;27.93;35.34
70851;DHT22;58475;49.662;9.636;2022-08-21T16:26:02;28.16;36.03
70851;DHT22;58475;49.662;9.636;2022-08-21T16:28:29;28.16;35.63
70851;DHT22;58475;49.662;9.636;2022-08-21T16:30:55;28.13;35.26
70851;DHT22;58475;49.662;9.636;2022-08-21T16:33:26;27.94;34.87
70851;DHT22;58475;49.662;9.636;2022-08-21T16:35:52;28.21;35.96
70851;DHT22;58475;49.662;9.636;2022-08-21T16:38:18;28.13;36.46
70851;DHT22;58475;49.662;9.636;2022-08-21T16:40:44;27.96;35.85
70851;DHT22;58475;49.662;9.636;2022-08-21T16:43:09;28.09;35.71
70851;DHT22;58475;49.662;9.636;2022-08-21T16:45:36;27.90;36.26
70851;DHT22;58475;49.662;9.636;2022-08-21T16:48:02;27.72;35.99